Time;durP1;ratioP1;P1;durP2;ratioP2;P2;SDS_P1;SDS_P2;PMS_P1;PMS_P2;Temp;Humidity;BMP_temperature;BMP_pressure;BME280_temperature;BME280_humidity;BME280_pressure;Samples;Min_cycle;Max_cycle;Signal;HPM_P1;HPM_P2
2023/06/03 00:00:58;;;;;;;2.70;2.50;;;17.00;83.00;;;;;;5000909;28;20449;-70
2023/06/03 00:03:23;;;;;;;2.70;2.50;;;17.00;83.20;;;;;;5008150;28;20221;-70
2023/06/03 00:05:49;;;;;;;3.20;2.50;;;17.10;82.70;;;;;;4991908;28;20221;-69
2023/06/03 00:08:15;;;;;;;2.80;2.47;;;17.10;83.20;;;;;;5006252;28;20226;-70
2023/06/03 00:10:40;;;;;;;3.07;2.57;;;17.00;83.10;;;;;;5008196;28;20233;-69
2023/06/03 00:13:09;;;;;;;2.77;2.20;;;16.90;83.20;;;;;;5008180;28;20218;-70
2023/06/03 00:15:34;;;;;;;3.10;2.87;;;16.90;83.20;;;;;;5002750;28;20220;-69
2023/06/03 00:18:01;;;;;;;2.60;2.40;;;16.90;83.50;;;;;;5002155;28;20449;-69
2023/06/03 00:20:28;;;;;;;5.00;3.30;;;16.80;83.60;;;;;;4989438;28;20210;-68
2023/06/03 00:22:53;;;;;;;2.70;2.03;;;16.70;84.00;;;;;;5004577;28;20475;-69
2023/06/03 00:25:19;;;;;;;6.73;2.77;;;16.60;84.00;;;;;;5006072;28;20962;-71
2023/06/03 00:27:49;;;;;;;2.80;2.00;;;16.70;84.20;;;;;;5002172;28;20222;-70
2023/06/03 00:30:14;;;;;;;2.70;2.50;;;16.70;84.40;;;;;;5003299;28;20209;-69
2023/06/03 00:32:40;;;;;;;4.17;2.70;;;16.60;84.50;;;;;;5001290;28;20856;-69
2023/06/03 00:35:06;;;;;;;2.77;2.13;;;16.50;84.40;;;;;;4985059;28;20210;-70
2023/06/03 00:37:32;;;;;;;2.60;2.20;;;16.60;84.70;;;;;;5003216;28;20238;-70
2023/06/03 00:39:57;;;;;;;2.60;2.30;;;16.50;84.40;;;;;;4986051;28;20496;-70
2023/06/03 00:42:23;;;;;;;2.60;2.40;;;16.50;85.10;;;;;;5003530;28;20234;-70
2023/06/03 00:44:51;;;;;;;6.83;2.90;;;16.40;85.10;;;;;;5002668;28;20227;-70
2023/06/03 00:47:18;;;;;;;2.53;2.33;;;16.40;85.20;;;;;;4998766;28;20230;-69
2023/06/03 00:49:45;;;;;;;2.80;2.50;;;16.40;85.60;;;;;;5006282;28;20470;-70
2023/06/03 00:52:13;;;;;;;3.13;2.50;;;16.30;85.70;;;;;;5004078;28;20979;-69
2023/06/03 00:54:38;;;;;;;4.17;2.50;;;16.30;85.70;;;;;;5003185;28;20493;-70
2023/06/03 00:57:05;;;;;;;3.33;2.20;;;16.30;86.00;;;;;;5004768;28;20461;-70
2023/06/03 00:59:31;;;;;;;3.30;3.00;;;16.20;86.20;;;;;;5005200;28;20691;-69
2023/06/03 01:01:57;;;;;;;4.90;2.50;;;16.20;86.50;;;;;;4989366;28;20482;-69
2023/06/03 01:04:25;;;;;;;3.53;2.70;;;16.20;86.60;;;;;;5005204;28;20283;-70
2023/06/03 01:06:56;;;;;;;7.07;2.73;;;16.10;86.80;;;;;;4989233;28;20561;-70
2023/06/03 01:09:56;;;;;;;5.37;2.73;;;16.10;87.00;;;;;;4987570;28;20434;-70
2023/06/03 01:12:52;;;;;;;3.10;2.80;;;16.10;86.90;;;;;;4984658;28;20814;-69
2023/06/03 01:15:20;;;;;;;3.40;2.30;;;16.00;87.30;;;;;;4997026;28;20473;-70
2023/06/03 01:17:49;;;;;;;3.60;2.47;;;16.00;87.30;;;;;;4986414;28;20475;-70
2023/06/03 01:20:16;;;;;;;4.90;2.33;;;16.00;87.40;;;;;;5004370;28;20998;-69
2023/06/03 01:22:44;;;;;;;6.13;2.90;;;16.10;87.40;;;;;;4988633;28;20540;-69
2023/06/03 01:25:12;;;;;;;2.70;2.50;;;16.00;87.50;;;;;;4982691;28;20473;-70
2023/06/03 01:27:41;;;;;;;4.40;2.80;;;16.00;87.80;;;;;;5005572;28;20691;-69
2023/06/03 01:30:09;;;;;;;2.90;2.50;;;16.00;87.70;;;;;;5006111;28;20464;-69
2023/06/03 01:32:37;;;;;;;3.10;2.80;;;16.00;88.10;;;;;;5002394;28;21008;-69
2023/06/03 01:35:07;;;;;;;7.23;2.70;;;15.90;87.90;;;;;;5000664;28;20472;-70
2023/06/03 01:37:34;;;;;;;3.60;2.30;;;15.90;88.30;;;;;;4999730;28;20444;-68
2023/06/03 01:40:01;;;;;;;4.27;2.60;;;15.80;88.10;;;;;;4980046;28;20451;-70
2023/06/03 01:42:30;;;;;;;4.40;3.00;;;15.80;88.70;;;;;;4988082;28;20533;-69
2023/06/03 01:45:00;;;;;;;2.53;2.23;;;15.80;88.90;;;;;;4989151;28;20557;-69
2023/06/03 01:47:27;;;;;;;3.30;2.97;;;15.70;89.30;;;;;;5002114;28;20223;-70
2023/06/03 01:49:53;;;;;;;5.70;3.13;;;15.80;89.00;;;;;;5004210;28;21124;-69
2023/06/03 01:52:19;;;;;;;5.03;3.10;;;15.70;89.40;;;;;;4987824;28;20441;-71
2023/06/03 01:54:45;;;;;;;4.87;3.53;;;15.70;89.50;;;;;;4999112;28;20474;-70
2023/06/03 01:57:11;;;;;;;4.90;2.97;;;15.70;89.60;;;;;;5005118;28;20226;-70
2023/06/03 01:59:37;;;;;;;4.60;2.90;;;15.70;89.70;;;;;;4991419;28;20218;-69
2023/06/03 02:02:03;;;;;;;3.80;2.40;;;15.60;89.90;;;;;;5001463;28;20485;-68
2023/06/03 02:04:29;;;;;;;4.97;2.73;;;15.60;90.10;;;;;;5003920;28;20218;-68
2023/06/03 02:07:01;;;;;;;3.10;2.47;;;15.60;90.00;;;;;;4992166;28;20465;-68
2023/06/03 02:09:29;;;;;;;3.80;3.10;;;15.50;90.20;;;;;;5004501;28;20461;-69
2023/06/03 02:11:55;;;;;;;3.80;2.80;;;15.40;90.30;;;;;;4991413;28;20492;-70
2023/06/03 02:14:22;;;;;;;3.90;2.30;;;15.50;90.20;;;;;;4991909;28;20448;-70
2023/06/03 02:16:48;;;;;;;6.10;3.40;;;15.50;90.50;;;;;;5008303;28;20469;-69
2023/06/03 02:19:20;;;;;;;5.30;3.17;;;15.40;90.30;;;;;;5007828;28;20497;-70
2023/06/03 02:21:47;;;;;;;5.10;3.37;;;15.40;90.30;;;;;;5005166;28;20465;-69
2023/06/03 02:24:14;;;;;;;3.73;2.60;;;15.40;90.30;;;;;;4986439;28;20473;-70
2023/06/03 02:26:50;;;;;;;6.43;2.83;;;15.50;90.40;;;;;;5008315;28;20464;-69
2023/06/03 02:29:23;;;;;;;2.63;2.43;;;15.50;90.10;;;;;;4988421;28;20499;-69
2023/06/03 02:31:50;;;;;;;4.20;3.43;;;15.50;90.20;;;;;;4993124;28;20477;-69
2023/06/03 02:34:18;;;;;;;5.20;3.00;;;15.50;90.10;;;;;;5006688;28;20552;-69
2023/06/03 02:36:44;;;;;;;5.10;3.40;;;15.60;89.70;;;;;;5000266;28;20468;-69
2023/06/03 02:39:11;;;;;;;4.53;3.10;;;15.60;89.70;;;;;;5003051;28;20860;-70
2023/06/03 02:41:37;;;;;;;6.53;3.73;;;15.60;89.60;;;;;;5005445;28;20272;-69
2023/06/03 02:44:04;;;;;;;3.63;2.80;;;15.60;90.00;;;;;;4993251;28;20511;-69
2023/06/03 02:46:31;;;;;;;5.47;3.00;;;15.60;89.30;;;;;;4993496;28;20461;-69
2023/06/03 02:48:57;;;;;;;6.60;3.50;;;15.50;89.10;;;;;;4984965;28;20926;-69
2023/06/03 02:51:23;;;;;;;3.30;3.00;;;15.50;89.60;;;;;;5003524;28;20457;-69
2023/06/03 02:53:50;;;;;;;5.20;2.83;;;15.60;89.30;;;;;;4990380;28;20806;-70
2023/06/03 02:56:16;;;;;;;5.40;3.60;;;15.70;88.70;;;;;;5007101;28;20351;-70
2023/06/03 02:58:41;;;;;;;4.30;3.30;;;15.80;88.50;;;;;;5013962;28;20467;-69
2023/06/03 03:01:07;;;;;;;5.50;3.10;;;15.80;87.90;;;;;;4992782;28;20449;-70
2023/06/03 03:03:36;;;;;;;4.07;2.90;;;15.70;88.40;;;;;;5006128;28;20218;-69
2023/06/03 03:06:03;;;;;;;5.90;3.13;;;15.70;88.80;;;;;;5009049;28;20264;-69
2023/06/03 03:08:29;;;;;;;3.67;3.33;;;15.70;88.60;;;;;;4989954;28;20460;-69
2023/06/03 03:10:55;;;;;;;5.53;3.00;;;15.70;88.70;;;;;;5007170;28;20471;-69
2023/06/03 03:13:21;;;;;;;6.20;3.33;;;15.70;88.20;;;;;;5004959;28;20502;-69
2023/06/03 03:15:47;;;;;;;4.90;3.70;;;15.60;87.80;;;;;;5008061;28;20468;-69
2023/06/03 03:18:14;;;;;;;3.77;3.37;;;15.60;88.30;;;;;;4990907;28;20982;-69
2023/06/03 03:20:40;;;;;;;7.20;3.00;;;15.50;88.20;;;;;;5005963;28;20551;-70
2023/06/03 03:23:07;;;;;;;4.60;3.30;;;15.50;88.50;;;;;;5004674;28;20459;-69
2023/06/03 03:25:34;;;;;;;4.53;3.07;;;15.50;89.00;;;;;;5007515;28;20444;-68
2023/06/03 03:28:00;;;;;;;3.60;3.10;;;15.40;89.10;;;;;;5004815;28;20463;-69
2023/06/03 03:30:26;;;;;;;7.17;3.80;;;15.40;89.20;;;;;;4998043;28;20449;-69
2023/06/03 03:32:52;;;;;;;4.23;3.47;;;15.40;88.80;;;;;;5001035;28;20222;-69
2023/06/03 03:35:21;;;;;;;2.83;2.63;;;15.40;89.40;;;;;;5009087;28;20448;-69
2023/06/03 03:38:03;;;;;;;3.50;2.90;;;15.30;89.60;;;;;;5003050;28;20471;-69
2023/06/03 03:40:32;;;;;;;6.20;3.43;;;15.30;89.60;;;;;;5008098;28;20453;-69
2023/06/03 03:42:59;;;;;;;3.73;2.80;;;15.30;89.30;;;;;;5007381;28;20460;-69
2023/06/03 03:45:30;;;;;;;5.13;3.93;;;15.30;89.50;;;;;;4993974;28;20449;-68
2023/06/03 03:48:01;;;;;;;6.23;3.10;;;15.30;89.30;;;;;;5008794;28;20487;-69
2023/06/03 03:50:47;;;;;;;3.37;3.07;;;15.30;89.10;;;;;;5009949;28;20488;-69
2023/06/03 03:53:22;;;;;;;5.20;3.27;;;15.30;89.20;;;;;;4985017;28;20488;-70
2023/06/03 03:55:52;;;;;;;6.90;3.33;;;15.30;88.90;;;;;;4987145;28;20496;-69
2023/06/03 03:58:21;;;;;;;3.47;2.93;;;15.30;89.20;;;;;;4990203;28;20482;-70
2023/06/03 04:00:48;;;;;;;7.13;3.20;;;15.40;89.20;;;;;;4986868;28;20819;-70
2023/06/03 04:03:14;;;;;;;9.30;3.77;;;15.30;89.40;;;;;;4998191;28;20461;-69
2023/06/03 04:05:40;;;;;;;4.30;3.50;;;15.30;89.40;;;;;;5006581;28;20460;-69
2023/06/03 04:08:06;;;;;;;4.40;3.37;;;15.30;89.60;;;;;;4991671;28;20872;-68
2023/06/03 04:10:33;;;;;;;4.40;2.90;;;15.30;89.00;;;;;;5001397;28;20591;-69
2023/06/03 04:12:59;;;;;;;6.10;3.90;;;15.40;88.70;;;;;;4988371;28;20540;-70
2023/06/03 04:15:33;;;;;;;4.43;3.40;;;15.40;89.00;;;;;;5004697;28;20528;-70
2023/06/03 04:18:00;;;;;;;3.40;3.10;;;15.30;89.40;;;;;;4982163;28;20235;-70
2023/06/03 04:20:41;;;;;;;8.43;3.60;;;15.30;89.70;;;;;;5000490;28;20528;-69
2023/06/03 04:23:14;;;;;;;5.63;2.90;;;15.30;89.40;;;;;;5022181;28;20518;-69
2023/06/03 04:25:43;;;;;;;3.03;2.73;;;15.40;89.50;;;;;;5004216;28;20477;-69
2023/06/03 04:28:10;;;;;;;3.63;3.33;;;15.40;89.40;;;;;;5005618;28;20465;-69
2023/06/03 04:30:37;;;;;;;4.80;3.27;;;15.40;89.90;;;;;;5002826;28;20453;-69
2023/06/03 04:33:04;;;;;;;3.67;3.30;;;15.40;90.00;;;;;;4991514;28;20538;-69
2023/06/03 04:35:31;;;;;;;3.63;2.73;;;15.40;90.40;;;;;;5005929;28;20456;-69
2023/06/03 04:37:59;;;;;;;6.30;3.50;;;15.40;90.20;;;;;;4999013;28;20461;-68
2023/06/03 04:40:26;;;;;;;6.07;3.50;;;15.30;90.60;;;;;;4988226;28;20483;-70
2023/06/03 04:42:52;;;;;;;4.47;3.20;;;15.30;90.70;;;;;;5007143;28;20547;-69
2023/06/03 04:45:27;;;;;;;5.23;3.20;;;15.40;90.10;;;;;;5005406;28;20460;-69
2023/06/03 04:47:58;;;;;;;4.10;3.37;;;15.40;90.10;;;;;;4986935;28;20543;-69
2023/06/03 04:50:24;;;;;;;3.30;3.00;;;15.40;90.80;;;;;;4981448;28;20458;-68
2023/06/03 04:52:51;;;;;;;4.37;3.23;;;15.50;90.60;;;;;;4985623;28;20823;-70
2023/06/03 04:55:17;;;;;;;4.10;3.00;;;15.40;90.70;;;;;;4990579;28;20468;-69
2023/06/03 04:57:45;;;;;;;5.20;3.13;;;15.40;91.10;;;;;;5005485;28;20469;-69
2023/06/03 05:00:14;;;;;;;3.10;2.83;;;15.40;91.30;;;;;;4995392;28;21000;-69
2023/06/03 05:02:44;;;;;;;7.20;3.10;;;15.50;91.00;;;;;;4988266;28;20468;-70
2023/06/03 05:05:10;;;;;;;3.10;2.80;;;15.50;91.00;;;;;;5001500;28;20519;-70
2023/06/03 05:07:37;;;;;;;4.47;3.37;;;15.50;91.00;;;;;;4989473;28;20587;-69
2023/06/03 05:10:03;;;;;;;4.40;3.03;;;15.50;91.00;;;;;;4979012;28;21052;-68
2023/06/03 05:12:29;;;;;;;2.63;2.43;;;15.50;91.30;;;;;;5006197;28;20474;-69
2023/06/03 05:14:55;;;;;;;6.77;3.23;;;15.50;91.20;;;;;;5002504;28;20465;-69
2023/06/03 05:17:21;;;;;;;4.13;3.37;;;15.60;91.20;;;;;;5000959;28;20213;-69
2023/06/03 05:19:47;;;;;;;3.37;2.80;;;15.50;91.30;;;;;;4994309;28;20302;-69
2023/06/03 05:22:13;;;;;;;10.33;3.37;;;15.60;91.40;;;;;;4987078;28;20544;-69
2023/06/03 05:24:40;;;;;;;3.20;2.90;;;15.60;91.20;;;;;;5001558;28;20218;-70
2023/06/03 05:27:05;;;;;;;5.40;3.30;;;15.60;91.30;;;;;;5005695;28;20476;-69
2023/06/03 05:29:33;;;;;;;8.17;3.50;;;15.70;91.50;;;;;;5004240;28;20461;-70
2023/06/03 05:31:59;;;;;;;6.30;2.70;;;15.80;91.40;;;;;;5006515;28;20484;-69
2023/06/03 05:34:25;;;;;;;4.30;3.20;;;15.80;91.40;;;;;;4989013;28;20816;-70
2023/06/03 05:36:51;;;;;;;9.80;2.67;;;15.90;91.60;;;;;;4986569;28;20543;-69
2023/06/03 05:39:17;;;;;;;4.23;3.37;;;15.90;91.50;;;;;;5004231;28;20998;-70
2023/06/03 05:41:43;;;;;;;4.20;2.60;;;16.00;91.70;;;;;;4992519;28;20677;-68
2023/06/03 05:44:11;;;;;;;2.90;2.67;;;16.00;91.60;;;;;;5000834;28;20970;-70
2023/06/03 05:46:36;;;;;;;3.10;2.70;;;16.10;91.50;;;;;;4986914;28;20470;-69
2023/06/03 05:49:02;;;;;;;4.47;2.70;;;16.10;91.10;;;;;;4984501;28;20575;-69
2023/06/03 05:51:28;;;;;;;2.17;2.00;;;16.10;91.00;;;;;;5003251;28;20317;-69
2023/06/03 05:53:54;;;;;;;4.37;3.20;;;16.10;91.00;;;;;;4987918;28;20559;-69
2023/06/03 05:56:23;;;;;;;4.80;3.50;;;16.20;90.90;;;;;;5002416;28;20221;-69
2023/06/03 05:58:48;;;;;;;2.70;2.37;;;16.30;90.70;;;;;;5000560;28;21002;-69
2023/06/03 06:01:15;;;;;;;3.50;2.47;;;16.30;90.60;;;;;;4999314;28;20627;-69
2023/06/03 06:03:42;;;;;;;3.40;2.70;;;16.30;90.20;;;;;;5005735;28;20460;-70
2023/06/03 06:06:07;;;;;;;4.03;2.83;;;16.30;90.10;;;;;;4985680;28;20471;-70
2023/06/03 06:08:33;;;;;;;4.37;2.33;;;16.40;90.20;;;;;;4986496;28;20256;-69
2023/06/03 06:11:00;;;;;;;3.03;2.80;;;16.40;89.30;;;;;;5017812;28;20301;-70
2023/06/03 06:13:26;;;;;;;1.93;1.83;;;16.40;89.60;;;;;;4985351;28;20537;-69
2023/06/03 06:16:01;;;;;;;3.07;2.67;;;16.40;88.30;;;;;;5001389;28;20210;-68
2023/06/03 06:18:29;;;;;;;5.77;2.87;;;16.50;88.50;;;;;;4994932;28;20222;-70
2023/06/03 06:20:56;;;;;;;3.33;2.37;;;16.50;88.80;;;;;;5004739;28;20457;-71
2023/06/03 06:23:22;;;;;;;2.50;2.30;;;16.50;88.30;;;;;;5002945;28;20508;-70
2023/06/03 06:25:50;;;;;;;2.40;2.20;;;16.60;88.60;;;;;;4986573;28;20465;-70
2023/06/03 06:28:22;;;;;;;6.27;2.53;;;16.70;88.20;;;;;;4985556;28;20472;-69
2023/06/03 06:30:53;;;;;;;2.40;2.20;;;16.70;88.20;;;;;;5006004;28;20492;-70
2023/06/03 06:33:19;;;;;;;3.20;2.40;;;16.80;87.90;;;;;;4989833;28;20449;-70
2023/06/03 06:35:44;;;;;;;2.30;2.10;;;16.80;87.60;;;;;;4979861;28;20460;-70
2023/06/03 06:38:11;;;;;;;3.70;2.13;;;16.80;88.00;;;;;;5004766;28;20222;-69
2023/06/03 06:40:39;;;;;;;2.53;2.03;;;16.80;87.00;;;;;;4989853;28;20791;-71
2023/06/03 06:43:09;;;;;;;2.30;2.10;;;16.90;86.60;;;;;;5005670;28;20452;-70
2023/06/03 06:45:40;;;;;;;4.20;2.60;;;16.90;86.80;;;;;;5009031;28;20462;-70
2023/06/03 06:48:09;;;;;;;2.90;2.27;;;17.00;86.80;;;;;;4991214;28;20465;-70
2023/06/03 06:50:40;;;;;;;4.70;2.10;;;17.10;86.80;;;;;;4995421;28;21021;-70
2023/06/03 06:53:07;;;;;;;2.90;2.10;;;17.10;85.90;;;;;;4991886;28;20552;-69
2023/06/03 06:55:35;;;;;;;2.83;2.50;;;17.10;85.70;;;;;;5009718;28;20533;-69
2023/06/03 06:58:01;;;;;;;2.53;2.30;;;17.20;85.60;;;;;;5006421;28;20301;-70
2023/06/03 07:00:30;;;;;;;3.20;2.13;;;17.20;86.20;;;;;;5005953;28;20532;-69
2023/06/03 07:02:56;;;;;;;3.37;2.20;;;17.40;85.70;;;;;;4991831;28;20241;-69
2023/06/03 07:05:22;;;;;;;3.07;2.13;;;17.50;85.40;;;;;;5009660;28;20444;-71
2023/06/03 07:07:49;;;;;;;4.30;3.13;;;17.50;84.70;;;;;;5007245;28;20499;-70
2023/06/03 07:10:20;;;;;;;3.60;2.70;;;17.60;85.40;;;;;;5008777;28;20214;-71
2023/06/03 07:12:47;;;;;;;2.33;2.13;;;17.60;84.80;;;;;;5010743;28;20472;-71
2023/06/03 07:15:12;;;;;;;3.67;1.93;;;17.60;84.70;;;;;;5006770;28;20457;-70
2023/06/03 07:17:40;;;;;;;3.93;2.37;;;17.70;84.50;;;;;;5008936;28;20474;-70
2023/06/03 07:20:06;;;;;;;2.57;2.20;;;17.70;84.40;;;;;;4984766;28;20218;-70
2023/06/03 07:22:33;;;;;;;3.50;2.43;;;17.80;84.40;;;;;;4991118;28;20476;-70
2023/06/03 07:24:59;;;;;;;2.67;2.47;;;17.80;84.30;;;;;;4999950;28;20476;-70
2023/06/03 07:27:28;;;;;;;2.17;1.97;;;17.90;84.10;;;;;;5009936;28;20460;-70
2023/06/03 07:29:57;;;;;;;2.83;2.27;;;18.00;83.70;;;;;;5004200;28;20217;-70
2023/06/03 07:32:25;;;;;;;3.73;2.83;;;18.00;83.10;;;;;;4992130;28;20544;-70
2023/06/03 07:34:51;;;;;;;2.57;2.13;;;17.90;83.20;;;;;;5009974;28;20568;-69
2023/06/03 07:37:17;;;;;;;3.97;2.50;;;18.00;83.10;;;;;;4990032;28;20469;-69
2023/06/03 07:39:43;;;;;;;2.60;2.40;;;18.00;83.10;;;;;;5007498;28;20467;-70
2023/06/03 07:42:21;;;;;;;2.97;2.40;;;18.10;83.30;;;;;;4991676;28;20461;-69
2023/06/03 07:44:55;;;;;;;2.43;2.23;;;18.20;83.20;;;;;;4992485;28;20861;-69
2023/06/03 07:47:25;;;;;;;2.30;2.03;;;18.10;82.50;;;;;;5004840;28;20464;-69
2023/06/03 07:49:51;;;;;;;3.00;2.40;;;18.20;82.50;;;;;;4985921;28;20477;-69
2023/06/03 07:52:20;;;;;;;2.40;1.80;;;18.30;82.90;;;;;;4989457;28;20474;-70
2023/06/03 07:54:46;;;;;;;3.60;2.90;;;18.50;82.70;;;;;;5005860;28;20472;-71
2023/06/03 07:57:13;;;;;;;3.70;2.67;;;18.50;82.90;;;;;;5009316;28;20987;-70
2023/06/03 07:59:39;;;;;;;4.90;2.70;;;18.70;82.30;;;;;;5001836;28;20471;-71
2023/06/03 08:02:10;;;;;;;2.90;2.33;;;18.70;82.20;;;;;;5002016;28;20461;-71
2023/06/03 08:04:37;;;;;;;2.37;2.17;;;18.70;82.70;;;;;;5005575;28;20458;-72
2023/06/03 08:07:05;;;;;;;2.40;2.20;;;18.70;82.80;;;;;;5003485;28;20461;-71
2023/06/03 08:09:36;;;;;;;5.07;2.37;;;18.70;82.70;;;;;;5002336;28;20975;-70
2023/06/03 08:12:06;;;;;;;3.30;2.53;;;18.70;82.30;;;;;;5005879;28;20508;-71
2023/06/03 08:14:37;;;;;;;3.20;2.60;;;18.60;82.20;;;;;;5007693;28;20461;-71
2023/06/03 08:17:10;;;;;;;3.77;2.63;;;18.80;82.40;;;;;;5004957;28;21070;-71
2023/06/03 08:19:36;;;;;;;2.37;2.27;;;18.80;81.90;;;;;;4989676;28;20532;-70
2023/06/03 08:22:20;;;;;;;8.67;2.73;;;18.80;82.00;;;;;;4985068;28;20472;-71
2023/06/03 08:24:45;;;;;;;3.77;2.70;;;19.00;82.00;;;;;;5004287;28;20488;-71
2023/06/03 08:27:11;;;;;;;4.70;2.47;;;19.10;82.20;;;;;;5001548;28;20445;-71
2023/06/03 08:29:36;;;;;;;4.20;3.57;;;19.10;82.00;;;;;;5003740;28;20718;-71
2023/06/03 08:32:02;;;;;;;6.73;2.80;;;19.00;82.00;;;;;;4990304;28;20218;-72
2023/06/03 08:34:28;;;;;;;2.77;2.53;;;19.20;81.60;;;;;;5006702;28;20218;-72
2023/06/03 08:36:53;;;;;;;5.80;2.17;;;19.40;81.80;;;;;;4992244;28;20687;-72
2023/06/03 08:39:19;;;;;;;2.93;2.20;;;19.40;81.50;;;;;;4979806;28;20641;-72
2023/06/03 08:41:53;;;;;;;2.50;1.83;;;19.50;81.20;;;;;;4989029;28;20217;-71
2023/06/03 08:44:32;;;;;;;5.00;2.73;;;19.50;81.00;;;;;;4991783;28;20222;-71
2023/06/03 08:47:09;;;;;;;4.97;2.10;;;19.60;81.30;;;;;;4983796;28;20493;-71
2023/06/03 08:50:03;;;;;;;3.80;2.60;;;19.60;80.90;;;;;;5004936;28;20536;-71
2023/06/03 08:52:33;;;;;;;4.80;2.37;;;19.40;81.20;;;;;;4999908;28;20975;-71
2023/06/03 08:55:00;;;;;;;3.23;2.93;;;19.40;81.60;;;;;;5006125;28;20484;-72
2023/06/03 08:57:33;;;;;;;3.43;2.50;;;19.50;81.90;;;;;;4978290;28;20493;-70
2023/06/03 09:00:00;;;;;;;3.30;2.10;;;19.70;81.60;;;;;;5006292;28;20468;-71
2023/06/03 09:02:28;;;;;;;2.80;2.60;;;19.90;81.10;;;;;;5006693;28;20481;-72
2023/06/03 09:04:55;;;;;;;4.60;2.30;;;19.90;81.30;;;;;;5016316;28;21011;-71
2023/06/03 09:07:23;;;;;;;4.17;2.67;;;20.00;80.70;;;;;;5004191;28;20459;-72
2023/06/03 09:09:51;;;;;;;2.73;2.53;;;20.10;81.20;;;;;;5003142;28;20480;-71
2023/06/03 09:12:17;;;;;;;6.90;2.83;;;20.20;81.10;;;;;;5006690;28;20480;-72
2023/06/03 09:14:46;;;;;;;9.37;2.90;;;20.20;81.00;;;;;;4998675;28;20492;-71
2023/06/03 09:17:12;;;;;;;7.50;2.97;;;20.30;81.00;;;;;;5005826;28;20551;-71
2023/06/03 09:19:39;;;;;;;6.20;2.23;;;20.10;81.20;;;;;;5003589;28;21136;-72
2023/06/03 09:22:05;;;;;;;3.37;2.50;;;20.30;81.80;;;;;;4982904;28;20256;-71
2023/06/03 09:24:31;;;;;;;4.27;2.80;;;20.50;81.10;;;;;;5003906;28;20472;-70
2023/06/03 09:26:57;;;;;;;2.67;2.47;;;20.60;81.10;;;;;;4982531;28;20477;-71
2023/06/03 09:29:23;;;;;;;2.90;2.43;;;20.70;81.10;;;;;;5005488;28;20465;-70
2023/06/03 09:31:49;;;;;;;3.83;2.67;;;20.80;80.70;;;;;;5003231;28;20571;-71
2023/06/03 09:34:16;;;;;;;3.20;2.90;;;20.90;79.80;;;;;;5004248;28;20564;-72
2023/06/03 09:36:47;;;;;;;3.00;2.30;;;21.00;79.80;;;;;;5004346;28;20645;-71
2023/06/03 09:39:17;;;;;;;4.20;2.40;;;21.10;80.60;;;;;;5003484;28;20465;-71
2023/06/03 09:41:44;;;;;;;6.00;3.37;;;21.20;81.00;;;;;;5003161;28;20468;-72
2023/06/03 09:44:10;;;;;;;2.83;2.63;;;21.30;80.50;;;;;;4997635;28;20475;-71
2023/06/03 09:46:36;;;;;;;5.00;3.43;;;21.10;80.20;;;;;;5003885;28;20874;-70
2023/06/03 09:49:11;;;;;;;9.93;2.83;;;21.20;80.20;;;;;;5001198;28;20508;-71
2023/06/03 09:51:41;;;;;;;3.20;3.00;;;21.30;80.20;;;;;;5006954;28;20551;-71
2023/06/03 09:54:12;;;;;;;2.63;2.43;;;21.30;80.20;;;;;;4988128;28;21152;-72
2023/06/03 09:56:38;;;;;;;4.10;3.30;;;21.40;79.90;;;;;;4989175;28;20503;-72
2023/06/03 09:59:14;;;;;;;4.67;2.87;;;21.40;80.10;;;;;;5009587;28;20512;-71
2023/06/03 10:01:48;;;;;;;3.37;3.07;;;21.60;80.40;;;;;;5006242;28;20220;-72
2023/06/03 10:04:22;;;;;;;4.20;3.00;;;21.40;79.80;;;;;;5012325;28;20505;-70
2023/06/03 10:07:08;;;;;;;3.93;2.70;;;21.10;80.00;;;;;;5000297;28;20488;-72
2023/06/03 10:09:34;;;;;;;3.17;2.93;;;21.00;80.60;;;;;;4998436;28;21043;-72
2023/06/03 10:12:00;;;;;;;4.43;3.30;;;20.90;81.50;;;;;;4988949;28;21068;-71
2023/06/03 10:14:26;;;;;;;3.10;2.57;;;21.10;81.10;;;;;;4992457;28;20466;-70
2023/06/03 10:17:09;;;;;;;4.03;2.63;;;21.40;80.80;;;;;;4989296;28;20217;-72
2023/06/03 10:19:40;;;;;;;4.63;3.00;;;21.30;80.70;;;;;;5008051;28;20460;-71
2023/06/03 10:22:07;;;;;;;6.70;3.40;;;21.50;80.70;;;;;;5003132;28;20472;-71
2023/06/03 10:24:37;;;;;;;4.27;2.67;;;21.30;80.60;;;;;;5004760;28;20457;-70
2023/06/03 10:27:03;;;;;;;4.60;3.20;;;21.40;81.20;;;;;;5006996;28;20468;-71
2023/06/03 10:29:31;;;;;;;3.40;3.10;;;21.20;81.90;;;;;;5007920;28;20488;-73
2023/06/03 10:32:00;;;;;;;4.30;3.17;;;21.20;81.90;;;;;;5006651;28;20570;-72
2023/06/03 10:34:28;;;;;;;4.67;3.67;;;21.50;81.70;;;;;;5007633;28;20468;-72
2023/06/03 10:37:02;;;;;;;6.00;3.47;;;21.80;81.30;;;;;;5007971;28;20464;-71
2023/06/03 10:39:29;;;;;;;3.10;2.90;;;21.60;81.30;;;;;;4991544;28;21064;-71
2023/06/03 10:42:01;;;;;;;4.23;3.83;;;21.50;82.80;;;;;;4993279;28;20464;-72
2023/06/03 10:44:28;;;;;;;4.67;3.27;;;21.70;81.30;;;;;;4992247;28;20469;-72
2023/06/03 10:47:15;;;;;;;4.30;3.90;;;21.90;81.10;;;;;;5008200;28;20519;-72
2023/06/03 10:49:45;;;;;;;4.20;3.83;;;22.10;81.10;;;;;;5007728;28;20466;-72
2023/06/03 10:52:29;;;;;;;4.93;3.97;;;22.40;81.10;;;;;;5009242;28;20468;-72
2023/06/03 10:54:55;;;;;;;5.50;3.60;;;22.70;80.50;;;;;;5007300;28;20470;-72
2023/06/03 10:57:30;;;;;;;8.60;4.17;;;23.00;79.90;;;;;;4994587;28;20518;-72
2023/06/03 10:59:56;;;;;;;5.40;4.60;;;22.90;80.90;;;;;;5008041;28;20213;-72
2023/06/03 11:02:21;;;;;;;6.40;3.70;;;22.50;80.30;;;;;;4981669;28;20473;-73
2023/06/03 11:04:47;;;;;;;4.83;4.03;;;22.50;80.00;;;;;;5007929;28;20579;-71
2023/06/03 11:07:31;;;;;;;4.37;3.47;;;22.70;80.00;;;;;;5001387;28;20679;-72
2023/06/03 11:09:57;;;;;;;7.03;3.53;;;22.50;80.20;;;;;;4999393;28;20218;-73
2023/06/03 11:12:50;;;;;;;5.43;4.10;;;22.50;80.40;;;;;;5011702;28;20471;-72
2023/06/03 11:15:16;;;;;;;4.40;4.00;;;23.00;79.60;;;;;;5003550;28;20494;-71
2023/06/03 11:18:14;;;;;;;4.07;3.70;;;23.10;79.90;;;;;;5007484;28;20539;-72
2023/06/03 11:20:40;;;;;;;4.97;4.47;;;22.80;79.70;;;;;;5006582;28;20217;-72
2023/06/03 11:23:05;;;;;;;7.00;4.10;;;22.90;79.30;;;;;;4988604;28;20468;-72
2023/06/03 11:25:32;;;;;;;4.70;4.30;;;22.60;79.30;;;;;;5008284;28;20224;-72
2023/06/03 11:28:35;;;;;;;3.90;3.60;;;22.70;79.20;;;;;;5007654;28;20232;-71
2023/06/03 11:31:02;;;;;;;4.23;3.83;;;23.10;79.00;;;;;;5002062;28;20503;-72
2023/06/03 11:33:28;;;;;;;5.00;3.93;;;23.00;78.30;;;;;;5004885;28;20840;-71
2023/06/03 11:35:53;;;;;;;5.83;4.30;;;23.20;78.20;;;;;;4988579;28;20460;-72
2023/06/03 11:38:58;;;;;;;3.80;3.50;;;23.30;78.40;;;;;;4981657;28;20696;-72
2023/06/03 11:41:58;;;;;;;8.00;4.53;;;23.30;77.90;;;;;;4976261;28;20245;-72
2023/06/03 11:44:24;;;;;;;4.67;4.20;;;23.30;78.00;;;;;;4995754;28;20442;-72
2023/06/03 11:46:53;;;;;;;5.07;3.63;;;23.10;78.10;;;;;;5009786;28;20963;-73
2023/06/03 11:49:23;;;;;;;6.10;4.20;;;23.00;77.60;;;;;;5011066;28;20284;-72
2023/06/03 11:52:00;;;;;;;9.10;3.87;;;23.20;77.20;;;;;;5006369;28;20487;-72
2023/06/03 11:54:26;;;;;;;7.03;4.40;;;23.50;76.60;;;;;;5000964;28;20475;-73
2023/06/03 11:56:54;;;;;;;4.37;3.90;;;23.10;77.70;;;;;;5005624;28;20473;-72
2023/06/03 11:59:25;;;;;;;7.53;4.30;;;23.30;77.60;;;;;;5006406;28;20559;-72
2023/06/03 12:02:00;;;;;;;4.03;3.67;;;23.50;77.40;;;;;;5003619;28;20476;-71
2023/06/03 12:04:27;;;;;;;6.50;4.40;;;23.40;77.40;;;;;;5004586;28;20452;-71
2023/06/03 12:06:53;;;;;;;4.37;3.90;;;22.90;78.20;;;;;;5004649;28;20480;-72
2023/06/03 12:09:20;;;;;;;4.23;3.80;;;22.90;78.10;;;;;;5001990;28;20488;-72
2023/06/03 12:11:46;;;;;;;4.80;3.53;;;23.30;78.00;;;;;;5005417;28;21022;-72
2023/06/03 12:14:28;;;;;;;4.80;4.10;;;23.60;78.10;;;;;;5003618;28;20472;-71
2023/06/03 12:16:55;;;;;;;5.50;4.23;;;23.70;77.80;;;;;;4995080;28;20849;-72
2023/06/03 12:19:21;;;;;;;8.77;5.93;;;23.80;77.10;;;;;;5001344;28;20460;-72
2023/06/03 12:21:58;;;;;;;5.53;4.50;;;23.70;77.40;;;;;;5005229;28;20478;-71
2023/06/03 12:24:29;;;;;;;5.80;4.20;;;23.80;77.80;;;;;;5002984;28;20212;-71
2023/06/03 12:26:56;;;;;;;4.70;4.13;;;23.90;78.40;;;;;;5005221;28;20472;-72
2023/06/03 12:29:24;;;;;;;4.70;4.20;;;23.90;77.10;;;;;;4999162;28;20484;-72
2023/06/03 12:32:00;;;;;;;6.83;3.90;;;24.00;77.30;;;;;;5006662;28;20506;-73
2023/06/03 12:34:34;;;;;;;5.07;4.33;;;24.20;76.80;;;;;;5000406;28;20451;-72
2023/06/03 12:37:01;;;;;;;5.07;4.30;;;24.20;76.30;;;;;;5006136;28;20843;-72
2023/06/03 12:39:42;;;;;;;6.03;5.30;;;24.40;76.80;;;;;;4997483;28;20500;-73
2023/06/03 12:42:09;;;;;;;6.10;4.20;;;24.30;76.70;;;;;;4988215;28;20830;-72
2023/06/03 12:44:46;;;;;;;4.90;4.50;;;24.40;76.20;;;;;;5006296;28;20449;-73
2023/06/03 12:47:14;;;;;;;5.10;4.40;;;24.60;76.80;;;;;;5005552;28;20475;-74
2023/06/03 12:49:40;;;;;;;6.30;4.57;;;24.50;76.40;;;;;;5004207;28;20867;-74
2023/06/03 12:52:18;;;;;;;5.20;4.70;;;24.10;76.60;;;;;;5003876;28;20484;-72
2023/06/03 12:54:50;;;;;;;5.20;4.70;;;24.20;76.70;;;;;;4987747;28;20956;-72
2023/06/03 12:57:17;;;;;;;5.37;4.90;;;24.30;76.20;;;;;;5006185;28;20457;-72